Terminal Aerodrome Forecast
Issued by NWS

Home | Current Version | Previous Version | Text Only | Print | Product List | Glossary On
Versions: 1 2 3 4 5 6 7 8 9 10 11 12 13 14 15 16 17
000
FTUS45 KLKN 290520
TAFELY
TAF
KELY 290520Z 2906/3006 17006KT P6SM SCT110
     FM290700 VRB06KT P6SM FEW110
     FM292200 23009KT P6SM VCTS SCT050CB BKN090
     FM300400 19006KT P6SM BKN090=

USA.gov is the U.S. government's official web portal to all federal, state and local government web resources and services.